createdAt,value
2022-12-22T00:02:37.776Z,7.50
2022-12-22T00:05:31.983Z,7.50
2022-12-22T00:08:17.290Z,7.50
2022-12-22T00:11:02.880Z,7.50
2022-12-22T00:13:48.425Z,7.50
2022-12-22T00:16:33.450Z,7.60
2022-12-22T00:19:18.800Z,7.60
2022-12-22T00:22:05.393Z,7.60
2022-12-22T00:24:50.723Z,7.60
2022-12-22T00:27:45.495Z,7.60
2022-12-22T00:30:32.187Z,7.60
2022-12-22T00:33:18.594Z,7.60
2022-12-22T00:36:03.859Z,7.60
2022-12-22T00:38:50.492Z,7.60
2022-12-22T00:41:35.588Z,7.60
2022-12-22T00:44:20.896Z,7.60
2022-12-22T00:47:06.089Z,7.60
2022-12-22T00:49:54.432Z,7.60
2022-12-22T00:52:42.073Z,7.70
2022-12-22T00:55:34.065Z,7.70
2022-12-22T00:58:20.814Z,7.70
2022-12-22T01:01:05.938Z,7.70
2022-12-22T01:03:51.268Z,7.70
2022-12-22T01:06:36.739Z,7.70
2022-12-22T01:09:23.284Z,7.70
2022-12-22T01:12:10.258Z,7.70
2022-12-22T01:14:55.210Z,7.80
2022-12-22T01:17:40.418Z,7.80
2022-12-22T01:20:27.068Z,7.80
2022-12-22T01:23:12.248Z,7.80
2022-12-22T01:25:57.648Z,7.80
2022-12-22T01:28:44.458Z,7.80
2022-12-22T01:31:36.337Z,7.80
2022-12-22T01:34:22.019Z,7.80
2022-12-22T01:37:07.194Z,7.80
2022-12-22T01:39:52.300Z,7.80
2022-12-22T01:42:37.910Z,7.80
2022-12-22T01:45:38.777Z,7.80
2022-12-22T01:48:25.405Z,7.90
2022-12-22T01:51:10.677Z,7.90
2022-12-22T01:53:55.864Z,7.90
2022-12-22T01:56:42.651Z,7.90
2022-12-22T01:59:28.269Z,7.90
2022-12-22T02:02:16.704Z,7.90
2022-12-22T02:05:06.176Z,7.90
2022-12-22T02:08:20.874Z,7.90
2022-12-22T02:11:20.975Z,7.90
2022-12-22T02:14:29.742Z,7.90
2022-12-22T02:17:25.340Z,7.90
2022-12-22T02:20:38.032Z,8.00
2022-12-22T02:23:34.123Z,8.00
2022-12-22T02:26:37.540Z,8.00
2022-12-22T02:29:25.081Z,8.00
2022-12-22T02:32:10.702Z,8.00
2022-12-22T02:34:57.029Z,8.00
2022-12-22T02:37:50.463Z,8.00
2022-12-22T02:40:46.160Z,8.00
2022-12-22T02:43:41.991Z,8.00
2022-12-22T02:46:37.625Z,8.00
2022-12-22T02:49:31.325Z,8.00
2022-12-22T02:52:23.732Z,8.00
2022-12-22T02:55:09.353Z,8.00
2022-12-22T02:57:54.501Z,8.10
2022-12-22T03:00:40.272Z,8.00
2022-12-22T03:03:27.083Z,8.00
2022-12-22T03:06:12.354Z,8.10
2022-12-22T03:08:57.696Z,8.10
2022-12-22T03:11:43.045Z,8.10
2022-12-22T03:14:28.412Z,8.10
2022-12-22T03:17:13.526Z,8.10
2022-12-22T03:20:00.386Z,8.10
2022-12-22T03:22:45.563Z,8.10
2022-12-22T03:25:31.040Z,8.10
2022-12-22T03:28:03.196Z,8.10
2022-12-22T03:30:30.939Z,8.10
2022-12-22T03:32:58.727Z,8.20
2022-12-22T03:35:28.089Z,8.20
2022-12-22T03:37:55.775Z,8.30
2022-12-22T03:40:23.502Z,8.20
2022-12-22T03:43:09.071Z,8.10
2022-12-22T03:45:54.068Z,8.10
2022-12-22T03:48:21.800Z,8.20
2022-12-22T03:50:50.857Z,8.20
2022-12-22T03:53:18.558Z,8.20
2022-12-22T03:55:46.264Z,8.20
2022-12-22T03:58:13.984Z,8.20
2022-12-22T04:00:41.744Z,8.20
2022-12-22T04:03:09.614Z,8.20
2022-12-22T04:05:37.411Z,8.20
2022-12-22T04:08:07.153Z,8.20
2022-12-22T04:10:52.601Z,8.20
2022-12-22T04:13:20.310Z,8.20
2022-12-22T04:15:48.028Z,8.20
2022-12-22T04:18:15.742Z,8.30
2022-12-22T04:20:43.453Z,8.30
2022-12-22T04:23:12.484Z,8.30
2022-12-22T04:25:40.180Z,8.30
2022-12-22T04:28:07.870Z,8.30
2022-12-22T04:30:35.580Z,8.30
2022-12-22T04:33:03.333Z,8.30
2022-12-22T04:35:31.036Z,8.30
2022-12-22T04:37:58.761Z,8.30
2022-12-22T04:40:27.837Z,8.30
2022-12-22T04:42:55.593Z,8.30
2022-12-22T04:45:23.326Z,8.30
2022-12-22T04:47:51.026Z,8.30
2022-12-22T04:50:18.806Z,8.30
2022-12-22T04:52:46.810Z,8.30
2022-12-22T04:55:14.569Z,8.30
2022-12-22T04:57:43.674Z,8.30
2022-12-22T05:00:12.528Z,8.30
2022-12-22T05:02:40.375Z,8.40
2022-12-22T05:05:09.347Z,8.40
2022-12-22T05:07:37.088Z,8.40
2022-12-22T05:10:05.584Z,8.40
2022-12-22T05:12:50.993Z,8.40
2022-12-22T05:15:20.286Z,8.40
2022-12-22T05:17:48.092Z,8.40
2022-12-22T05:20:16.353Z,8.40
2022-12-22T05:22:44.216Z,8.40
2022-12-22T05:25:12.248Z,8.50
2022-12-22T05:27:39.994Z,8.50
2022-12-22T05:30:09.068Z,8.50
2022-12-22T05:32:38.110Z,8.50
2022-12-22T05:35:06.654Z,8.60
2022-12-22T05:37:34.801Z,8.60
2022-12-22T05:40:02.608Z,8.60
2022-12-22T05:42:39.508Z,8.60
2022-12-22T05:45:13.171Z,8.60
2022-12-22T05:47:42.283Z,8.60
2022-12-22T05:50:11.545Z,8.60
2022-12-22T05:52:39.953Z,8.60
2022-12-22T05:55:08.767Z,8.60
2022-12-22T05:57:37.347Z,8.60
2022-12-22T06:00:06.846Z,8.70
2022-12-22T06:02:34.723Z,8.70
2022-12-22T06:05:03.992Z,8.70
2022-12-22T06:07:31.735Z,8.60
2022-12-22T06:09:59.501Z,8.70
2022-12-22T06:12:27.247Z,8.70
2022-12-22T06:14:54.984Z,8.60
2022-12-22T06:17:22.697Z,8.70
2022-12-22T06:19:50.424Z,8.60
2022-12-22T06:22:19.497Z,8.70
2022-12-22T06:24:47.242Z,8.70
2022-12-22T06:27:14.983Z,8.60
2022-12-22T06:29:42.722Z,8.60
2022-12-22T06:32:10.482Z,8.70
2022-12-22T06:34:38.237Z,8.70
2022-12-22T06:37:05.984Z,8.60
2022-12-22T06:39:35.052Z,8.60
2022-12-22T06:42:20.384Z,8.60
2022-12-22T06:44:50.496Z,8.60
2022-12-22T06:47:18.702Z,8.60
2022-12-22T06:49:46.423Z,8.60
2022-12-22T06:52:14.176Z,8.60
2022-12-22T06:54:43.274Z,8.60
2022-12-22T06:57:11.107Z,8.60
2022-12-22T06:59:38.857Z,8.60
2022-12-22T07:02:06.914Z,8.60
2022-12-22T07:04:34.820Z,8.60
2022-12-22T07:07:02.554Z,8.60
2022-12-22T07:09:30.412Z,8.60
2022-12-22T07:11:59.519Z,8.60
2022-12-22T07:14:27.249Z,8.60
2022-12-22T07:16:54.999Z,8.60
2022-12-22T07:19:22.821Z,8.60
2022-12-22T07:21:51.361Z,8.60
2022-12-22T07:24:23.742Z,8.60
2022-12-22T07:26:51.607Z,8.60
2022-12-22T07:29:20.815Z,8.60
2022-12-22T07:31:49.051Z,8.70
2022-12-22T07:34:16.934Z,8.70
2022-12-22T07:36:44.769Z,8.60
2022-12-22T07:39:13.208Z,8.70
2022-12-22T07:41:58.692Z,8.70
2022-12-22T07:44:27.770Z,8.70
2022-12-22T07:46:56.176Z,8.70
2022-12-22T07:49:41.311Z,8.70
2022-12-22T07:52:09.077Z,8.70
2022-12-22T07:54:41.705Z,8.70
2022-12-22T07:57:10.094Z,8.70
2022-12-22T07:59:39.163Z,8.70
2022-12-22T08:02:07.280Z,8.70
2022-12-22T08:04:35.109Z,8.70
2022-12-22T08:07:02.840Z,8.80
2022-12-22T08:09:30.556Z,8.80
2022-12-22T08:11:58.259Z,8.80
2022-12-22T08:14:25.972Z,8.80
2022-12-22T08:16:55.068Z,8.80
2022-12-22T08:19:22.786Z,8.80
2022-12-22T08:21:53.216Z,8.80
2022-12-22T08:24:21.270Z,8.80
2022-12-22T08:26:52.180Z,8.80
2022-12-22T08:29:23.822Z,8.80
2022-12-22T08:31:51.712Z,8.80
2022-12-22T08:34:20.851Z,8.90
2022-12-22T08:36:52.307Z,8.90
2022-12-22T08:39:22.254Z,8.90
2022-12-22T08:41:53.369Z,8.90
2022-12-22T08:44:23.729Z,8.90
2022-12-22T08:46:51.817Z,8.90
2022-12-22T08:49:21.305Z,9.00
2022-12-22T08:51:49.341Z,9.00
2022-12-22T08:54:17.343Z,9.00
2022-12-22T08:56:46.478Z,9.00
2022-12-22T08:59:14.849Z,9.00
2022-12-22T09:01:47.864Z,9.00
2022-12-22T09:04:17.145Z,9.00
2022-12-22T09:06:46.570Z,9.00
2022-12-22T09:09:16.360Z,9.00
2022-12-22T09:11:44.319Z,9.00
2022-12-22T09:14:13.146Z,9.00
2022-12-22T09:16:41.668Z,9.00
2022-12-22T09:19:10.065Z,9.00
2022-12-22T09:21:37.968Z,9.00
2022-12-22T09:24:08.159Z,9.00
2022-12-22T09:26:36.349Z,9.00
2022-12-22T09:29:04.382Z,9.00
2022-12-22T09:31:32.524Z,9.00
2022-12-22T09:34:00.348Z,9.10
2022-12-22T09:36:30.036Z,9.10
2022-12-22T09:38:58.099Z,9.10
2022-12-22T09:41:32.211Z,9.10
2022-12-22T09:44:04.429Z,9.10
2022-12-22T09:46:36.235Z,9.10
2022-12-22T09:49:05.949Z,9.10
2022-12-22T09:51:39.883Z,9.10
2022-12-22T09:54:10.488Z,9.10
2022-12-22T09:56:39.930Z,9.10
2022-12-22T09:59:12.152Z,9.10
2022-12-22T10:01:51.094Z,9.10
2022-12-22T10:04:35.899Z,9.10
2022-12-22T10:07:13.316Z,9.10
2022-12-22T10:09:50.657Z,9.10
2022-12-22T10:12:22.746Z,9.10
2022-12-22T10:14:52.490Z,9.10
2022-12-22T10:17:23.804Z,9.10
2022-12-22T10:19:54.308Z,9.10
2022-12-22T10:22:29.547Z,9.10
2022-12-22T10:24:57.618Z,9.10
2022-12-22T10:27:30.456Z,9.10
2022-12-22T10:30:19.897Z,9.10
2022-12-22T10:33:05.401Z,9.10
2022-12-22T10:35:56.031Z,9.10
2022-12-22T10:38:26.755Z,9.10
2022-12-22T10:41:02.117Z,9.10
2022-12-22T10:43:34.986Z,9.10
2022-12-22T10:46:04.227Z,9.10
2022-12-22T10:48:34.960Z,9.10
2022-12-22T10:51:04.842Z,9.10
2022-12-22T10:53:41.533Z,9.10
2022-12-22T10:56:18.595Z,9.10
2022-12-22T10:58:50.776Z,9.00
2022-12-22T11:01:26.202Z,9.00
2022-12-22T11:03:54.064Z,9.00
2022-12-22T11:06:21.896Z,9.00
2022-12-22T11:08:51.782Z,9.00
2022-12-22T11:11:33.098Z,8.90
2022-12-22T11:14:16.109Z,8.90
2022-12-22T11:16:51.795Z,8.90
2022-12-22T11:19:37.819Z,8.90
2022-12-22T11:22:13.498Z,8.90
2022-12-22T11:24:49.704Z,8.90
2022-12-22T11:27:28.939Z,8.90
2022-12-22T11:30:08.600Z,8.90
2022-12-22T11:33:12.372Z,8.90
2022-12-22T11:35:52.042Z,8.90
2022-12-22T11:38:26.781Z,8.90
2022-12-22T11:41:03.585Z,8.90
2022-12-22T11:43:47.487Z,8.90
2022-12-22T11:46:23.433Z,8.90
2022-12-22T11:49:19.994Z,8.90
2022-12-22T11:52:03.985Z,8.90
2022-12-22T11:55:07.594Z,8.90
2022-12-22T11:57:42.167Z,8.90
2022-12-22T12:00:12.284Z,8.90
2022-12-22T12:03:05.808Z,9.00
2022-12-22T12:05:45.481Z,9.00
2022-12-22T12:08:25.419Z,9.00
2022-12-22T12:10:57.983Z,9.00
2022-12-22T12:13:37.473Z,9.00
2022-12-22T12:16:18.453Z,9.00
2022-12-22T12:19:05.022Z,9.00
2022-12-22T12:21:43.352Z,9.00
2022-12-22T12:24:36.742Z,9.00
2022-12-22T12:27:12.538Z,9.00
2022-12-22T12:30:06.208Z,9.00
2022-12-22T12:32:41.479Z,8.90
2022-12-22T12:35:27.362Z,8.90
2022-12-22T12:38:02.339Z,8.90
2022-12-22T12:40:38.986Z,8.90
2022-12-22T12:43:10.941Z,8.90
2022-12-22T12:45:45.260Z,9.00
2022-12-22T12:48:40.176Z,9.00
2022-12-22T12:51:44.847Z,9.10
2022-12-22T12:54:46.908Z,9.00
2022-12-22T12:57:47.166Z,9.10
2022-12-22T13:00:49.601Z,9.10
2022-12-22T13:06:51.867Z,9.10
2022-12-22T13:12:35.469Z,9.10
2022-12-22T13:15:03.318Z,9.10
2022-12-22T13:17:35.471Z,9.10
2022-12-22T13:20:04.837Z,9.10
2022-12-22T13:22:34.216Z,9.10
2022-12-22T13:25:04.398Z,9.10
2022-12-22T13:27:32.402Z,9.10
2022-12-22T13:30:01.489Z,9.10
2022-12-22T13:32:34.233Z,9.10
2022-12-22T13:35:30.788Z,9.10
2022-12-22T13:40:43.225Z,9.10
2022-12-22T13:43:14.474Z,9.10
2022-12-22T13:45:46.432Z,9.10
2022-12-22T13:48:17.081Z,9.00
2022-12-22T13:50:48.796Z,9.10
2022-12-22T13:53:50.054Z,9.00
2022-12-22T13:56:13.282Z,9.00
2022-12-22T13:58:45.191Z,9.00
2022-12-22T14:01:19.448Z,9.00
2022-12-22T14:04:06.896Z,9.00
2022-12-22T14:06:37.433Z,8.90
2022-12-22T14:09:16.875Z,8.90
2022-12-22T14:11:51.551Z,8.90
2022-12-22T14:14:26.456Z,8.90
2022-12-22T14:16:58.307Z,8.90
2022-12-22T14:19:28.835Z,8.80
2022-12-22T14:22:05.245Z,8.80
2022-12-22T14:24:38.964Z,8.80
2022-12-22T14:27:12.648Z,8.80
2022-12-22T14:29:40.675Z,8.80
2022-12-22T14:32:30.812Z,8.80
2022-12-22T14:34:58.591Z,8.80
2022-12-22T14:37:32.381Z,8.70
2022-12-22T14:40:00.747Z,8.70
2022-12-22T14:42:28.657Z,8.70
2022-12-22T14:44:56.607Z,8.70
2022-12-22T14:47:26.918Z,8.70
2022-12-22T14:49:58.389Z,8.70
2022-12-22T14:52:35.291Z,8.70
2022-12-22T14:55:04.696Z,8.60
2022-12-22T14:57:37.898Z,8.60
2022-12-22T15:00:08.029Z,8.60
2022-12-22T15:02:40.654Z,8.60
2022-12-22T15:05:17.587Z,8.50
2022-12-22T15:10:40.662Z,8.50
2022-12-22T15:13:14.089Z,8.50
2022-12-22T15:15:41.825Z,8.50
2022-12-22T15:18:15.910Z,8.50
2022-12-22T15:20:43.708Z,8.40
2022-12-22T15:23:14.681Z,8.40
2022-12-22T15:25:42.543Z,8.40
2022-12-22T15:28:10.779Z,8.40
2022-12-22T15:30:38.955Z,8.40
2022-12-22T15:33:14.086Z,8.40
2022-12-22T15:35:42.773Z,8.40
2022-12-22T15:38:14.916Z,8.30
2022-12-22T15:40:42.832Z,8.30
2022-12-22T15:43:28.725Z,8.30
2022-12-22T15:45:59.348Z,8.30
2022-12-22T15:48:31.539Z,8.30
2022-12-22T15:50:59.964Z,8.20
2022-12-22T15:53:27.860Z,8.20
2022-12-22T15:55:58.358Z,8.20
2022-12-22T15:58:28.897Z,8.20
2022-12-22T16:00:57.104Z,8.20
2022-12-22T16:03:25.234Z,8.20
2022-12-22T16:05:54.659Z,8.10
2022-12-22T16:08:28.353Z,8.20
2022-12-22T16:10:56.039Z,8.10
2022-12-22T16:13:27.436Z,8.10
2022-12-22T16:15:57.581Z,8.10
2022-12-22T16:18:25.575Z,8.10
2022-12-22T16:20:55.031Z,8.10
2022-12-22T16:23:26.473Z,8.10
2022-12-22T16:26:01.322Z,8.10
2022-12-22T16:28:29.785Z,8.10
2022-12-22T16:30:57.709Z,8.10
2022-12-22T16:33:25.460Z,8.10
2022-12-22T16:35:54.622Z,8.10
2022-12-22T16:38:22.392Z,8.10
2022-12-22T16:40:52.233Z,8.10
2022-12-22T16:46:15.902Z,8.10
2022-12-22T16:48:46.414Z,8.00
2022-12-22T16:51:22.581Z,8.00
2022-12-22T16:53:50.498Z,8.00
2022-12-22T16:56:20.427Z,8.00
2022-12-22T16:58:48.942Z,8.00
2022-12-22T17:01:24.655Z,8.00
2022-12-22T17:03:52.751Z,8.00
2022-12-22T17:06:22.000Z,8.00
2022-12-22T17:08:50.252Z,8.00
2022-12-22T17:11:22.308Z,8.00
2022-12-22T17:13:51.104Z,8.00
2022-12-22T17:16:21.000Z,8.00
2022-12-22T17:18:49.238Z,8.00
2022-12-22T17:21:18.978Z,8.00
2022-12-22T17:23:51.096Z,8.00
2022-12-22T17:26:23.716Z,8.00
2022-12-22T17:28:52.003Z,8.00
2022-12-22T17:31:21.914Z,8.00
2022-12-22T17:33:50.077Z,8.00
2022-12-22T17:36:28.639Z,8.00
2022-12-22T17:38:58.040Z,8.00
2022-12-22T17:41:26.401Z,8.00
2022-12-22T17:43:54.213Z,8.00
2022-12-22T17:46:22.468Z,8.00
2022-12-22T17:48:50.615Z,8.00
2022-12-22T17:51:21.416Z,8.00
2022-12-22T17:53:49.249Z,8.00
2022-12-22T17:56:21.093Z,8.00
2022-12-22T17:58:49.022Z,8.00
2022-12-22T18:01:21.776Z,8.00
2022-12-22T18:03:49.827Z,8.00
2022-12-22T18:06:19.578Z,8.00
2022-12-22T18:08:48.054Z,8.00
2022-12-22T18:11:15.959Z,8.00
2022-12-22T18:13:45.319Z,8.00
2022-12-22T18:16:16.072Z,8.00
2022-12-22T18:18:44.681Z,8.00
2022-12-22T18:21:17.032Z,8.00
2022-12-22T18:23:50.005Z,8.00
2022-12-22T18:26:22.317Z,8.00
2022-12-22T18:28:51.836Z,8.10
2022-12-22T18:31:20.274Z,8.00
2022-12-22T18:33:48.252Z,8.00
2022-12-22T18:36:19.267Z,8.00
2022-12-22T18:38:48.825Z,8.00
2022-12-22T18:41:20.967Z,8.10
2022-12-22T18:43:49.081Z,8.00
2022-12-22T18:46:18.746Z,8.00
2022-12-22T18:48:47.168Z,8.10
2022-12-22T18:51:20.464Z,8.10
2022-12-22T18:53:48.809Z,8.10
2022-12-22T18:56:16.616Z,8.10
2022-12-22T18:58:44.721Z,8.10
2022-12-22T19:01:20.257Z,8.10
2022-12-22T19:03:48.472Z,8.10
2022-12-22T19:06:18.617Z,8.10
2022-12-22T19:08:48.118Z,8.10
2022-12-22T19:11:17.267Z,8.10
2022-12-22T19:13:47.922Z,8.20
2022-12-22T19:16:18.124Z,8.10
2022-12-22T19:18:47.218Z,8.20
2022-12-22T19:21:15.889Z,8.20
2022-12-22T19:23:44.126Z,8.20
2022-12-22T19:26:20.567Z,8.20
2022-12-22T19:28:50.287Z,8.20
2022-12-22T19:31:24.082Z,8.20
2022-12-22T19:33:53.933Z,8.20
2022-12-22T19:36:25.498Z,8.20
2022-12-22T19:39:02.528Z,8.20
2022-12-22T19:41:39.214Z,8.20
2022-12-22T19:44:07.264Z,8.20
2022-12-22T19:46:36.342Z,8.20
2022-12-22T19:49:05.425Z,8.20
2022-12-22T19:51:33.124Z,8.20
2022-12-22T19:54:00.824Z,8.20
2022-12-22T19:56:30.639Z,8.20
2022-12-22T19:59:01.062Z,8.20
2022-12-22T20:01:29.039Z,8.30
2022-12-22T20:03:56.892Z,8.30
2022-12-22T20:06:25.940Z,8.30
2022-12-22T20:08:54.085Z,8.30
2022-12-22T20:11:21.802Z,8.30
2022-12-22T20:13:49.602Z,8.30
2022-12-22T20:16:18.195Z,8.30
2022-12-22T20:18:46.930Z,8.30
2022-12-22T20:21:18.309Z,8.30
2022-12-22T20:23:48.145Z,8.30
2022-12-22T20:26:20.142Z,8.30
2022-12-22T20:28:49.573Z,8.30
2022-12-22T20:31:19.014Z,8.30
2022-12-22T20:33:47.474Z,8.30
2022-12-22T20:36:21.391Z,8.40
2022-12-22T20:38:52.180Z,8.40
2022-12-22T20:41:21.042Z,8.40
2022-12-22T20:43:49.114Z,8.40
2022-12-22T20:46:20.285Z,8.40
2022-12-22T20:48:49.997Z,8.40
2022-12-22T20:51:20.086Z,8.40
2022-12-22T20:53:50.515Z,8.40
2022-12-22T20:56:22.515Z,8.40
2022-12-22T20:58:50.727Z,8.40
2022-12-22T21:01:19.240Z,8.40
2022-12-22T21:03:47.079Z,8.40
2022-12-22T21:06:26.849Z,8.40
2022-12-22T21:08:57.898Z,8.40
2022-12-22T21:11:26.086Z,8.40
2022-12-22T21:13:54.817Z,8.50
2022-12-22T21:16:25.796Z,8.50
2022-12-22T21:18:54.624Z,8.50
2022-12-22T21:21:22.473Z,8.50
2022-12-22T21:23:50.335Z,8.50
2022-12-22T21:26:23.463Z,8.50
2022-12-22T21:28:52.095Z,8.50
2022-12-22T21:31:20.001Z,8.50
2022-12-22T21:33:50.027Z,8.50
2022-12-22T21:36:22.658Z,8.50
2022-12-22T21:38:52.748Z,8.50
2022-12-22T21:41:42.571Z,8.50
2022-12-22T21:44:12.399Z,8.50
2022-12-22T21:46:40.703Z,8.50
2022-12-22T21:49:08.597Z,8.50
2022-12-22T21:51:36.828Z,8.50
2022-12-22T21:54:04.764Z,8.50
2022-12-22T21:56:33.803Z,8.50
2022-12-22T21:59:03.975Z,8.50
2022-12-22T22:01:32.209Z,8.50
2022-12-22T22:04:00.173Z,8.50
2022-12-22T22:06:27.909Z,8.50
2022-12-22T22:08:55.729Z,8.50
2022-12-22T22:11:26.543Z,8.50
2022-12-22T22:13:55.629Z,8.50
2022-12-22T22:16:23.438Z,8.50
2022-12-22T22:18:51.288Z,8.50
2022-12-22T22:21:19.384Z,8.50
2022-12-22T22:23:47.092Z,8.50
2022-12-22T22:26:14.807Z,8.50
2022-12-22T22:28:42.528Z,8.50
2022-12-22T22:31:12.261Z,8.50
2022-12-22T22:33:40.051Z,8.50
2022-12-22T22:36:08.342Z,8.50
2022-12-22T22:38:36.584Z,8.50
2022-12-22T22:41:04.329Z,8.50
2022-12-22T22:43:32.045Z,8.50
2022-12-22T22:45:59.800Z,8.50
2022-12-22T22:48:28.892Z,8.50
2022-12-22T22:50:56.622Z,8.50
2022-12-22T22:53:24.315Z,8.50
2022-12-22T22:55:52.008Z,8.50
2022-12-22T22:58:19.724Z,8.50
2022-12-22T23:00:47.535Z,8.50
2022-12-22T23:03:16.227Z,8.50
2022-12-22T23:05:45.800Z,8.50
2022-12-22T23:08:13.542Z,8.50
2022-12-22T23:10:47.589Z,8.50
2022-12-22T23:13:15.280Z,8.50
2022-12-22T23:15:43.055Z,8.50
2022-12-22T23:18:10.780Z,8.50
2022-12-22T23:20:38.451Z,8.50
2022-12-22T23:23:07.616Z,8.50
2022-12-22T23:25:35.349Z,8.50
2022-12-22T23:28:03.172Z,8.50
2022-12-22T23:30:30.881Z,8.50
2022-12-22T23:32:58.606Z,8.50
2022-12-22T23:35:26.353Z,8.50
2022-12-22T23:37:54.077Z,8.50
2022-12-22T23:40:51.184Z,8.50
2022-12-22T23:43:12.728Z,8.50
2022-12-22T23:45:41.352Z,8.50
2022-12-22T23:48:09.978Z,8.50
2022-12-22T23:50:37.941Z,8.50
2022-12-22T23:53:05.727Z,8.50
2022-12-22T23:55:34.817Z,8.50
2022-12-22T23:58:02.536Z,8.50
